Time;durP1;ratioP1;P1;durP2;ratioP2;P2;SDS_P1;SDS_P2;PMS_P1;PMS_P2;Temp;Humidity;BMP_temperature;BMP_pressure;BME280_temperature;BME280_humidity;BME280_pressure;Samples;Min_cycle;Max_cycle;Signal;HPM_P1;HPM_P2
2023/04/24 00:02:14;;;;;;;4.17;1.83;;;;;;;;;;4989541;28;20185;-68
2023/04/24 00:04:40;;;;;;;2.50;1.93;;;;;;;;;;4999382;28;20560;-69
2023/04/24 00:07:06;;;;;;;2.60;2.27;;;;;;;;;;4998947;28;20237;-69
2023/04/24 00:09:31;;;;;;;3.33;3.00;;;;;;;;;;5007670;28;20202;-69
2023/04/24 00:11:57;;;;;;;2.10;1.90;;;;;;;;;;4990624;28;20205;-68
2023/04/24 00:14:22;;;;;;;3.30;2.03;;;;;;;;;;4985736;28;20623;-68
2023/04/24 00:16:47;;;;;;;3.20;2.47;;;;;;;;;;5003801;28;20250;-68
2023/04/24 00:19:12;;;;;;;2.77;2.37;;;;;;;;;;5009764;28;20182;-68
2023/04/24 00:21:38;;;;;;;2.43;2.07;;;;;;;;;;5004326;28;20206;-68
2023/04/24 00:24:03;;;;;;;3.00;2.10;;;;;;;;;;5009351;28;20691;-69
2023/04/24 00:26:28;;;;;;;2.10;1.90;;;;;;;;;;5002344;28;20703;-69
2023/04/24 00:28:53;;;;;;;2.23;1.90;;;;;;;;;;5009507;28;20206;-68
2023/04/24 00:31:19;;;;;;;3.40;1.80;;;;;;;;;;5005049;28;20179;-67
2023/04/24 00:33:44;;;;;;;2.33;1.97;;;;;;;;;;5005502;28;20180;-67
2023/04/24 00:36:09;;;;;;;5.53;2.17;;;;;;;;;;4999248;28;20278;-68
2023/04/24 00:38:34;;;;;;;4.43;1.93;;;;;;;;;;5006995;28;20660;-67
2023/04/24 00:41:00;;;;;;;3.60;2.20;;;;;;;;;;4999261;28;20673;-67
2023/04/24 00:43:25;;;;;;;4.70;2.33;;;;;;;;;;4992553;28;20661;-67
2023/04/24 00:45:50;;;;;;;5.30;3.97;;;;;;;;;;4986222;28;20295;-67
2023/04/24 00:48:16;;;;;;;4.03;2.80;;;;;;;;;;4998613;28;20195;-67
2023/04/24 00:50:41;;;;;;;3.70;2.57;;;;;;;;;;4984942;28;20200;-67
2023/04/24 00:53:06;;;;;;;4.13;2.47;;;;;;;;;;4997949;28;20175;-67
2023/04/24 00:55:32;;;;;;;6.07;3.13;;;;;;;;;;4977756;28;20215;-68
2023/04/24 00:57:57;;;;;;;4.37;3.17;;;;;;;;;;4996297;28;20561;-68
2023/04/24 01:00:23;;;;;;;4.50;3.03;;;;;;;;;;4994693;28;20175;-68
2023/04/24 01:02:48;;;;;;;5.30;3.00;;;;;;;;;;4981532;28;20183;-67
2023/04/24 01:05:14;;;;;;;6.10;3.00;;;;;;;;;;5005045;28;20179;-68
2023/04/24 01:07:43;;;;;;;4.87;3.10;;;;;;;;;;5004653;28;20210;-67
2023/04/24 01:10:09;;;;;;;5.60;2.93;;;;;;;;;;5008377;28;20277;-67
2023/04/24 01:12:34;;;;;;;5.67;3.07;;;;;;;;;;4988293;28;20207;-68
2023/04/24 01:14:59;;;;;;;5.87;3.20;;;;;;;;;;5004640;28;20211;-68
2023/04/24 01:17:25;;;;;;;3.57;3.00;;;;;;;;;;4984117;28;20200;-67
2023/04/24 01:19:53;;;;;;;4.70;3.20;;;;;;;;;;5006686;28;20238;-68
2023/04/24 01:22:18;;;;;;;4.37;2.90;;;;;;;;;;5002530;28;20180;-67
2023/04/24 01:24:44;;;;;;;3.60;3.10;;;;;;;;;;5006710;28;20552;-68
2023/04/24 01:27:09;;;;;;;4.37;3.50;;;;;;;;;;5001354;28;20245;-67
2023/04/24 01:29:35;;;;;;;3.77;3.07;;;;;;;;;;4997942;28;20210;-68
2023/04/24 01:32:00;;;;;;;5.20;2.97;;;;;;;;;;5004057;28;20175;-67
2023/04/24 01:34:25;;;;;;;4.93;3.47;;;;;;;;;;5000343;28;20178;-68
2023/04/24 01:36:51;;;;;;;3.63;2.90;;;;;;;;;;5002388;28;20202;-68
2023/04/24 01:39:16;;;;;;;3.57;2.67;;;;;;;;;;5006513;28;20631;-68
2023/04/24 01:41:41;;;;;;;5.33;2.97;;;;;;;;;;5000036;28;20265;-68
2023/04/24 01:44:07;;;;;;;4.40;3.00;;;;;;;;;;4995866;28;20514;-67
2023/04/24 01:46:34;;;;;;;4.23;2.80;;;;;;;;;;4999937;28;20261;-68
2023/04/24 01:49:00;;;;;;;3.77;2.67;;;;;;;;;;4979445;28;20199;-68
2023/04/24 01:51:25;;;;;;;2.80;1.83;;;;;;;;;;4996972;28;20253;-68
2023/04/24 01:53:50;;;;;;;3.63;2.20;;;;;;;;;;4997438;28;20176;-68
2023/04/24 01:56:16;;;;;;;4.10;2.17;;;;;;;;;;4993083;28;20727;-67
2023/04/24 01:58:41;;;;;;;5.33;2.60;;;;;;;;;;4995340;28;20669;-68
2023/04/24 02:01:07;;;;;;;5.17;2.50;;;;;;;;;;4998191;28;20641;-68
2023/04/24 02:03:32;;;;;;;3.93;2.67;;;;;;;;;;5005481;28;20233;-67
2023/04/24 02:05:57;;;;;;;3.33;2.37;;;;;;;;;;5003610;28;20198;-68
2023/04/24 02:08:22;;;;;;;4.37;2.83;;;;;;;;;;4991320;28;20277;-68
2023/04/24 02:10:47;;;;;;;4.83;2.47;;;;;;;;;;5003716;28;20195;-68
2023/04/24 02:13:13;;;;;;;2.60;2.33;;;;;;;;;;4986425;28;20214;-68
2023/04/24 02:15:38;;;;;;;4.80;3.00;;;;;;;;;;5001042;28;20180;-67
2023/04/24 02:18:03;;;;;;;5.03;3.40;;;;;;;;;;5009021;28;20171;-68
2023/04/24 02:20:28;;;;;;;4.73;3.43;;;;;;;;;;5006462;28;20176;-67
2023/04/24 02:22:54;;;;;;;5.47;3.30;;;;;;;;;;5003882;28;20532;-68
2023/04/24 02:25:20;;;;;;;5.97;3.93;;;;;;;;;;4999598;28;20243;-67
2023/04/24 02:27:45;;;;;;;4.40;3.47;;;;;;;;;;5004359;28;20206;-67
2023/04/24 02:30:10;;;;;;;6.07;4.70;;;;;;;;;;4983702;28;20639;-67
2023/04/24 02:32:36;;;;;;;5.97;4.67;;;;;;;;;;5000975;28;20191;-68
2023/04/24 02:35:01;;;;;;;6.97;4.50;;;;;;;;;;4999803;28;20175;-68
2023/04/24 02:37:26;;;;;;;5.50;4.30;;;;;;;;;;4996021;28;20206;-68
2023/04/24 02:39:51;;;;;;;6.40;4.60;;;;;;;;;;4996308;28;20182;-68
2023/04/24 02:42:17;;;;;;;8.53;4.87;;;;;;;;;;4996680;28;20686;-68
2023/04/24 02:44:42;;;;;;;6.67;4.30;;;;;;;;;;4996114;28;20187;-68
2023/04/24 02:47:08;;;;;;;6.47;3.77;;;;;;;;;;4977311;28;20207;-68
2023/04/24 02:49:33;;;;;;;4.53;3.40;;;;;;;;;;4995061;28;20207;-68
2023/04/24 02:51:58;;;;;;;6.27;3.57;;;;;;;;;;4993626;28;20175;-68
2023/04/24 02:54:24;;;;;;;6.13;3.63;;;;;;;;;;4992838;28;20175;-67
2023/04/24 02:56:49;;;;;;;6.93;3.60;;;;;;;;;;4993028;28;20313;-68
2023/04/24 02:59:14;;;;;;;5.20;3.97;;;;;;;;;;4995318;28;20183;-67
2023/04/24 03:01:39;;;;;;;7.30;3.90;;;;;;;;;;4995502;28;20175;-68
2023/04/24 03:04:05;;;;;;;6.17;4.27;;;;;;;;;;5007658;28;20175;-67
2023/04/24 03:06:32;;;;;;;5.47;4.57;;;;;;;;;;4991559;28;20190;-67
2023/04/24 03:08:57;;;;;;;9.37;5.77;;;;;;;;;;4992495;28;20953;-68
2023/04/24 03:11:22;;;;;;;8.27;5.37;;;;;;;;;;4996970;28;20246;-68
2023/04/24 03:13:48;;;;;;;7.37;5.37;;;;;;;;;;4996899;28;20242;-68
2023/04/24 03:16:13;;;;;;;7.50;5.83;;;;;;;;;;5007876;23;21583;-78
2023/04/24 03:18:38;;;;;;;8.17;5.00;;;;;;;;;;5000573;28;20183;-76
2023/04/24 03:21:03;;;;;;;9.30;5.00;;;;;;;;;;5002701;28;20175;-77
2023/04/24 03:23:29;;;;;;;6.13;4.17;;;;;;;;;;5000939;28;20176;-77
2023/04/24 03:25:54;;;;;;;5.93;4.70;;;;;;;;;;4999037;28;20175;-77
2023/04/24 03:28:20;;;;;;;7.17;4.40;;;;;;;;;;4992532;28;20187;-77
2023/04/24 03:30:45;;;;;;;8.20;4.50;;;;;;;;;;4991399;28;20184;-77
2023/04/24 03:33:10;;;;;;;7.50;4.80;;;;;;;;;;4973820;28;20565;-77
2023/04/24 03:35:36;;;;;;;6.50;4.90;;;;;;;;;;4991208;28;20561;-77
2023/04/24 03:38:01;;;;;;;7.60;5.20;;;;;;;;;;4989272;28;20639;-77
2023/04/24 03:40:28;;;;;;;7.93;5.70;;;;;;;;;;4992281;28;20720;-77
2023/04/24 03:42:53;;;;;;;6.27;4.27;;;;;;;;;;4990856;28;20258;-77
2023/04/24 03:45:18;;;;;;;6.30;4.43;;;;;;;;;;4971202;28;20315;-77
2023/04/24 03:47:43;;;;;;;6.53;4.10;;;;;;;;;;4991871;28;20253;-77
2023/04/24 03:50:09;;;;;;;7.60;4.50;;;;;;;;;;4991980;28;20302;-77
2023/04/24 03:52:34;;;;;;;6.77;3.90;;;;;;;;;;4979180;28;20191;-77
2023/04/24 03:55:00;;;;;;;4.60;3.27;;;;;;;;;;4979132;28;20172;-77
2023/04/24 03:57:25;;;;;;;4.03;2.80;;;;;;;;;;4978223;28;20207;-77
2023/04/24 03:59:51;;;;;;;3.70;2.27;;;;;;;;;;4980870;28;20463;-77
2023/04/24 04:02:16;;;;;;;3.33;2.43;;;;;;;;;;4978324;28;20214;-77
2023/04/24 04:04:41;;;;;;;5.37;2.00;;;;;;;;;;4974801;28;20181;-77
2023/04/24 04:07:08;;;;;;;1.80;1.20;;;;;;;;;;4982855;28;20210;-77
2023/04/24 04:09:33;;;;;;;1.37;1.23;;;;;;;;;;4988162;28;20648;-77
2023/04/24 04:12:00;;;;;;;1.40;0.87;;;;;;;;;;4974044;28;20196;-77
2023/04/24 04:14:25;;;;;;;1.73;0.80;;;;;;;;;;4990186;28;20226;-77
2023/04/24 04:16:51;;;;;;;2.40;0.83;;;;;;;;;;4974937;28;20580;-77
2023/04/24 04:19:17;;;;;;;2.30;0.77;;;;;;;;;;4987230;28;20204;-77
2023/04/24 04:21:42;;;;;;;1.30;0.80;;;;;;;;;;4968544;28;20633;-77
2023/04/24 04:24:07;;;;;;;2.73;0.80;;;;;;;;;;4996020;28;20179;-77
2023/04/24 04:26:33;;;;;;;2.93;0.80;;;;;;;;;;4996300;28;20196;-77
2023/04/24 04:28:58;;;;;;;2.20;0.77;;;;;;;;;;4975018;28;20650;-77
2023/04/24 04:31:24;;;;;;;1.57;0.73;;;;;;;;;;4971489;28;20184;-78
2023/04/24 04:33:50;;;;;;;1.00;0.70;;;;;;;;;;4978218;28;20203;-78
2023/04/24 04:36:17;;;;;;;1.00;0.63;;;;;;;;;;5004424;28;20204;-78
2023/04/24 04:38:42;;;;;;;2.40;0.60;;;;;;;;;;4982619;28;20216;-77
2023/04/24 04:41:08;;;;;;;0.67;0.50;;;;;;;;;;4995412;28;20618;-77
2023/04/24 04:43:34;;;;;;;1.63;0.70;;;;;;;;;;4983482;28;20250;-77
2023/04/24 04:46:00;;;;;;;2.37;0.60;;;;;;;;;;5012879;28;20182;-77
2023/04/24 04:48:27;;;;;;;1.70;0.63;;;;;;;;;;4979954;28;20211;-77
2023/04/24 04:50:52;;;;;;;0.70;0.60;;;;;;;;;;4993366;28;20176;-77
2023/04/24 04:53:17;;;;;;;0.80;0.50;;;;;;;;;;5005236;28;20192;-77
2023/04/24 04:55:42;;;;;;;2.37;0.80;;;;;;;;;;4983563;28;20172;-76
2023/04/24 04:58:08;;;;;;;1.57;0.80;;;;;;;;;;4999071;28;20187;-77
2023/04/24 05:00:35;;;;;;;1.07;0.50;;;;;;;;;;4993705;28;20655;-76
2023/04/24 05:03:00;;;;;;;1.70;0.50;;;;;;;;;;4978790;28;20179;-77
2023/04/24 05:05:25;;;;;;;0.70;0.50;;;;;;;;;;4994718;28;20550;-77
2023/04/24 05:07:51;;;;;;;2.07;1.07;;;;;;;;;;4995357;28;20195;-77
2023/04/24 05:10:16;;;;;;;1.00;0.90;;;;;;;;;;4997695;28;20238;-77
2023/04/24 05:12:41;;;;;;;1.27;0.87;;;;;;;;;;4981726;28;20733;-77
2023/04/24 05:15:06;;;;;;;0.90;0.70;;;;;;;;;;4995748;28;20186;-78
2023/04/24 05:17:32;;;;;;;1.10;0.90;;;;;;;;;;4993182;28;20212;-78
2023/04/24 05:19:57;;;;;;;0.97;0.80;;;;;;;;;;4974427;28;20212;-77
2023/04/24 05:22:23;;;;;;;2.80;0.80;;;;;;;;;;4991279;28;20367;-77
2023/04/24 05:24:49;;;;;;;1.10;0.70;;;;;;;;;;4989804;28;20172;-78
2023/04/24 05:27:14;;;;;;;1.53;0.97;;;;;;;;;;4976259;28;20215;-78
2023/04/24 05:29:40;;;;;;;2.00;1.23;;;;;;;;;;4976638;28;20240;-77
2023/04/24 05:32:05;;;;;;;1.83;0.87;;;;;;;;;;4994218;28;20218;-77
2023/04/24 05:34:30;;;;;;;1.17;0.87;;;;;;;;;;4988086;28;20226;-78
2023/04/24 05:36:55;;;;;;;2.50;0.80;;;;;;;;;;4995557;28;20566;-78
2023/04/24 05:39:21;;;;;;;0.70;0.70;;;;;;;;;;4993197;28;20227;-78
2023/04/24 05:41:46;;;;;;;1.77;0.97;;;;;;;;;;4975912;28;20175;-77
2023/04/24 05:44:11;;;;;;;0.80;0.80;;;;;;;;;;4993879;28;20179;-77
2023/04/24 05:46:37;;;;;;;2.80;0.90;;;;;;;;;;4979820;28;20204;-78
2023/04/24 05:49:02;;;;;;;0.83;0.60;;;;;;;;;;4994572;28;20180;-77
2023/04/24 05:51:27;;;;;;;1.87;1.07;;;;;;;;;;4995558;28;20669;-77
2023/04/24 05:53:53;;;;;;;1.33;1.17;;;;;;;;;;4995000;28;20210;-77
2023/04/24 05:56:18;;;;;;;2.23;1.00;;;;;;;;;;4975926;28;20207;-77
2023/04/24 05:58:43;;;;;;;1.87;1.30;;;;;;;;;;4989314;28;20221;-78
2023/04/24 06:01:09;;;;;;;1.77;0.90;;;;;;;;;;4968933;28;20184;-76
2023/04/24 06:03:34;;;;;;;3.20;1.97;;;;;;;;;;4986431;28;20214;-78
2023/04/24 06:05:59;;;;;;;1.57;1.47;;;;;;;;;;4992701;28;20179;-78
2023/04/24 06:08:25;;;;;;;2.90;2.20;;;;;;;;;;4999154;28;20176;-77
2023/04/24 06:10:51;;;;;;;6.00;4.10;;;;;;;;;;4974270;28;20183;-77
2023/04/24 06:13:16;;;;;;;10.60;4.97;;;;;;;;;;4995136;28;20203;-78
2023/04/24 06:15:41;;;;;;;8.90;5.93;;;;;;;;;;4980374;28;20197;-78
2023/04/24 06:18:07;;;;;;;11.73;6.53;;;;;;;;;;4999498;28;20215;-78
2023/04/24 06:20:32;;;;;;;11.87;7.10;;;;;;;;;;4984184;28;20210;-78
2023/04/24 06:22:57;;;;;;;12.03;6.97;;;;;;;;;;4992933;28;20285;-78
2023/04/24 06:25:24;;;;;;;11.67;7.53;;;;;;;;;;4978884;28;20688;-78
2023/04/24 06:27:49;;;;;;;16.20;8.50;;;;;;;;;;5001875;28;20215;-78
2023/04/24 06:30:14;;;;;;;14.33;8.63;;;;;;;;;;4982344;28;20679;-78
2023/04/24 06:32:40;;;;;;;15.63;9.50;;;;;;;;;;4990283;28;20670;-78
2023/04/24 06:35:07;;;;;;;15.63;9.23;;;;;;;;;;4977292;28;20609;-78
2023/04/24 06:37:32;;;;;;;19.13;10.67;;;;;;;;;;4975728;28;20214;-78
2023/04/24 06:39:57;;;;;;;21.10;9.00;;;;;;;;;;4976518;28;20203;-78
2023/04/24 06:42:24;;;;;;;25.67;11.60;;;;;;;;;;4980013;28;20183;-78
2023/04/24 06:44:49;;;;;;;24.23;9.10;;;;;;;;;;4976580;28;20191;-78
2023/04/24 06:47:15;;;;;;;17.80;9.17;;;;;;;;;;4992348;28;20203;-79
2023/04/24 06:49:40;;;;;;;17.57;8.27;;;;;;;;;;4975841;28;20188;-78
2023/04/24 06:52:06;;;;;;;18.03;8.67;;;;;;;;;;4992841;28;20180;-78
2023/04/24 06:54:31;;;;;;;15.97;8.83;;;;;;;;;;4973753;28;20566;-78
2023/04/24 06:57:00;;;;;;;16.60;8.27;;;;;;;;;;4976593;28;20203;-78
2023/04/24 06:59:26;;;;;;;14.07;8.60;;;;;;;;;;4991628;28;20693;-78
2023/04/24 07:01:51;;;;;;;13.60;7.70;;;;;;;;;;4972459;28;20191;-78
2023/04/24 07:04:17;;;;;;;12.23;8.47;;;;;;;;;;4976676;28;20179;-78
2023/04/24 07:06:42;;;;;;;17.47;8.90;;;;;;;;;;4993496;28;20578;-78
2023/04/24 07:09:09;;;;;;;14.83;7.33;;;;;;;;;;4992772;28;20261;-77
2023/04/24 07:11:36;;;;;;;16.97;6.37;;;;;;;;;;4989848;28;20179;-77
2023/04/24 07:14:01;;;;;;;19.30;7.30;;;;;;;;;;4974766;28;20696;-78
2023/04/24 07:16:26;;;;;;;26.83;8.37;;;;;;;;;;4990462;28;20223;-76
2023/04/24 07:18:52;;;;;;;16.57;7.37;;;;;;;;;;4986260;28;20208;-77
2023/04/24 07:21:17;;;;;;;16.07;6.37;;;;;;;;;;4991612;28;20214;-77
2023/04/24 07:23:42;;;;;;;15.90;6.03;;;;;;;;;;4971289;28;20180;-76
2023/04/24 07:26:07;;;;;;;20.00;6.47;;;;;;;;;;4994192;28;20192;-76
2023/04/24 07:28:33;;;;;;;16.33;6.40;;;;;;;;;;4979006;28;20615;-76
2023/04/24 07:30:59;;;;;;;22.70;8.03;;;;;;;;;;4988511;28;20179;-76
2023/04/24 07:33:24;;;;;;;15.30;6.80;;;;;;;;;;4983252;28;20187;-76
2023/04/24 07:35:50;;;;;;;30.23;6.53;;;;;;;;;;4987587;28;20175;-76
2023/04/24 07:38:15;;;;;;;18.57;5.43;;;;;;;;;;4986353;28;20261;-76
2023/04/24 07:40:40;;;;;;;14.30;5.93;;;;;;;;;;4980440;28;20658;-76
2023/04/24 07:43:05;;;;;;;19.93;7.07;;;;;;;;;;4983983;28;20183;-76
2023/04/24 07:45:31;;;;;;;17.40;4.30;;;;;;;;;;4987028;28;20183;-76
2023/04/24 07:47:56;;;;;;;19.37;5.13;;;;;;;;;;4991023;28;20200;-77
2023/04/24 07:50:21;;;;;;;11.90;4.63;;;;;;;;;;4974628;28;20187;-75
2023/04/24 07:52:47;;;;;;;18.67;4.90;;;;;;;;;;4990919;28;20191;-76
2023/04/24 07:55:12;;;;;;;12.50;3.37;;;;;;;;;;4990312;28;20191;-76
2023/04/24 07:57:37;;;;;;;13.63;3.90;;;;;;;;;;4985785;28;20203;-76
2023/04/24 08:00:03;;;;;;;14.63;3.63;;;;;;;;;;4976944;28;20203;-76
2023/04/24 08:02:29;;;;;;;13.57;3.83;;;;;;;;;;4989564;28;20187;-76
2023/04/24 08:04:54;;;;;;;17.30;4.20;;;;;;;;;;4987041;28;20275;-77
2023/04/24 08:07:19;;;;;;;9.27;3.33;;;;;;;;;;4991021;28;20205;-76
2023/04/24 08:09:45;;;;;;;8.60;3.77;;;;;;;;;;4992403;28;20569;-76
2023/04/24 08:12:10;;;;;;;10.30;2.63;;;;;;;;;;4990554;28;20188;-76
2023/04/24 08:14:35;;;;;;;17.27;3.43;;;;;;;;;;4973848;28;20221;-77
2023/04/24 08:17:01;;;;;;;11.57;2.17;;;;;;;;;;4986287;28;20717;-78
2023/04/24 08:19:26;;;;;;;12.17;2.87;;;;;;;;;;4970062;28;20200;-77
2023/04/24 08:21:51;;;;;;;10.00;2.20;;;;;;;;;;4990562;28;20220;-77
2023/04/24 08:24:16;;;;;;;4.77;1.93;;;;;;;;;;4988836;28;20234;-77
2023/04/24 08:26:42;;;;;;;16.60;2.60;;;;;;;;;;4990872;28;20234;-77
2023/04/24 08:29:07;;;;;;;9.07;2.47;;;;;;;;;;4991829;28;20184;-78
2023/04/24 08:31:33;;;;;;;7.70;2.47;;;;;;;;;;4973991;28;20195;-77
2023/04/24 08:33:59;;;;;;;10.63;2.83;;;;;;;;;;4991465;28;20172;-78
2023/04/24 08:36:25;;;;;;;8.13;3.03;;;;;;;;;;5007854;28;20199;-78
2023/04/24 08:38:50;;;;;;;9.57;2.37;;;;;;;;;;5011053;28;20283;-77
2023/04/24 08:41:17;;;;;;;12.87;3.10;;;;;;;;;;4978285;28;20207;-77
2023/04/24 08:43:43;;;;;;;7.37;2.43;;;;;;;;;;4989104;28;20619;-77
2023/04/24 08:46:09;;;;;;;19.17;3.90;;;;;;;;;;4995093;28;20242;-78
2023/04/24 08:48:34;;;;;;;9.70;2.00;;;;;;;;;;4992157;28;20186;-78
2023/04/24 08:51:01;;;;;;;7.23;2.07;;;;;;;;;;4977897;28;20184;-77
2023/04/24 08:53:27;;;;;;;4.43;2.20;;;;;;;;;;4990695;28;20179;-77
2023/04/24 08:55:53;;;;;;;9.17;2.70;;;;;;;;;;4974655;28;20559;-77
2023/04/24 08:58:19;;;;;;;8.87;2.67;;;;;;;;;;4984776;28;20644;-77
2023/04/24 09:00:46;;;;;;;8.77;2.30;;;;;;;;;;4975212;28;20210;-77
2023/04/24 09:03:13;;;;;;;6.47;2.00;;;;;;;;;;4977239;28;20186;-77
2023/04/24 09:05:40;;;;;;;11.33;2.20;;;;;;;;;;4969003;28;20183;-77
2023/04/24 09:08:06;;;;;;;7.00;2.63;;;;;;;;;;4994129;28;20263;-77
2023/04/24 09:10:33;;;;;;;15.57;2.53;;;;;;;;;;4975765;28;20172;-78
2023/04/24 09:13:01;;;;;;;3.43;2.20;;;;;;;;;;4993777;28;20653;-78
2023/04/24 09:15:27;;;;;;;5.70;1.70;;;;;;;;;;4977000;28;20171;-78
2023/04/24 09:17:52;;;;;;;6.73;1.80;;;;;;;;;;4987709;28;20215;-76
2023/04/24 09:20:17;;;;;;;8.07;1.97;;;;;;;;;;4985283;28;20244;-76
2023/04/24 09:22:44;;;;;;;4.43;1.93;;;;;;;;;;4974532;28;20245;-76
2023/04/24 09:25:12;;;;;;;8.33;1.27;;;;;;;;;;4969505;28;20190;-76
2023/04/24 09:27:40;;;;;;;3.07;1.30;;;;;;;;;;4972929;28;20206;-76
2023/04/24 09:30:08;;;;;;;8.60;1.40;;;;;;;;;;4987497;28;20187;-76
2023/04/24 09:32:33;;;;;;;3.20;1.20;;;;;;;;;;4991929;28;20180;-76
2023/04/24 09:35:12;;;;;;;5.43;1.27;;;;;;;;;;4967155;28;20561;-76
2023/04/24 09:37:41;;;;;;;3.10;2.03;;;;;;;;;;4974849;28;20345;-76
2023/04/24 09:40:16;;;;;;;2.80;1.33;;;;;;;;;;4993166;28;20199;-76
2023/04/24 09:42:46;;;;;;;3.73;1.50;;;;;;;;;;4975029;28;20171;-76
2023/04/24 09:45:11;;;;;;;2.63;1.30;;;;;;;;;;4991028;28;20184;-76
2023/04/24 09:47:37;;;;;;;1.80;0.70;;;;;;;;;;4973204;28;20286;-75
2023/04/24 09:50:23;;;;;;;5.63;1.50;;;;;;;;;;4991798;28;20180;-75
2023/04/24 09:52:56;;;;;;;3.70;1.10;;;;;;;;;;4993000;28;20291;-75
2023/04/24 09:55:21;;;;;;;3.50;1.10;;;;;;;;;;4986487;28;20180;-75
2023/04/24 09:57:47;;;;;;;3.37;0.60;;;;;;;;;;4992827;28;20275;-74
2023/04/24 10:00:13;;;;;;;3.53;1.10;;;;;;;;;;4990325;28;20719;-77
2023/04/24 10:02:38;;;;;;;1.87;0.67;;;;;;;;;;4976148;28;20172;-77
2023/04/24 10:05:03;;;;;;;2.97;1.07;;;;;;;;;;4992686;28;20172;-75
2023/04/24 10:07:28;;;;;;;4.93;1.07;;;;;;;;;;4972982;28;20191;-76
2023/04/24 10:09:54;;;;;;;4.77;1.27;;;;;;;;;;4990689;28;20266;-75
2023/04/24 10:12:20;;;;;;;4.23;1.20;;;;;;;;;;4973905;28;20676;-75
2023/04/24 10:14:45;;;;;;;2.23;0.80;;;;;;;;;;4974431;28;20179;-75
2023/04/24 10:17:11;;;;;;;1.03;0.60;;;;;;;;;;4988010;28;20685;-75
2023/04/24 10:19:37;;;;;;;2.73;0.90;;;;;;;;;;4993589;28;20302;-76
2023/04/24 10:22:03;;;;;;;4.00;0.70;;;;;;;;;;4975218;28;20199;-76
2023/04/24 10:24:28;;;;;;;1.75;1.23;;;;;;;;;;4975116;28;20667;-77
2023/04/24 10:26:54;;;;;;;2.70;1.30;;;;;;;;;;4991371;28;20196;-75
2023/04/24 10:29:19;;;;;;;3.43;0.80;;;;;;;;;;4991368;28;20183;-75
2023/04/24 10:31:47;;;;;;;1.63;0.73;;;;;;;;;;4965165;28;20187;-76
2023/04/24 10:34:14;;;;;;;9.00;2.43;;;;;;;;;;4991679;28;20175;-75
2023/04/24 10:36:41;;;;;;;4.30;0.67;;;;;;;;;;4992794;28;20238;-75
2023/04/24 10:39:10;;;;;;;3.17;0.70;;;;;;;;;;4975056;28;20195;-77
2023/04/24 10:41:37;;;;;;;2.07;0.60;;;;;;;;;;4984529;28;20183;-75
2023/04/24 10:44:08;;;;;;;3.17;0.70;;;;;;;;;;4991131;28;20254;-74
2023/04/24 10:46:33;;;;;;;1.50;0.60;;;;;;;;;;4992542;28;20187;-75
2023/04/24 10:48:59;;;;;;;2.67;0.70;;;;;;;;;;4988122;28;20557;-75
2023/04/24 10:51:25;;;;;;;1.88;0.50;;;;;;;;;;4972793;28;20408;-75
2023/04/24 10:53:51;;;;;;;3.90;0.90;;;;;;;;;;4973964;28;20183;-75
2023/04/24 10:56:16;;;;;;;2.20;0.70;;;;;;;;;;4987308;28;21697;-75
2023/04/24 10:58:44;;;;;;;5.18;0.88;;;;;;;;;;4991974;28;20192;-75
2023/04/24 11:01:22;;;;;;;3.15;0.52;;;;;;;;;;4991340;28;20171;-75
2023/04/24 11:03:53;;;;;;;2.03;0.70;;;;;;;;;;4991142;28;20634;-75
2023/04/24 11:06:27;;;;;;;1.27;0.47;;;;;;;;;;4989376;28;20245;-75
2023/04/24 11:08:58;;;;;;;2.08;0.55;;;;;;;;;;4988793;28;20179;-75
2023/04/24 11:11:27;;;;;;;3.22;0.50;;;;;;;;;;4971186;28;20191;-76
2023/04/24 11:13:56;;;;;;;2.22;0.65;;;;;;;;;;4971347;28;20211;-76
2023/04/24 11:16:35;;;;;;;3.25;0.60;;;;;;;;;;4974894;28;20307;-76
2023/04/24 11:19:03;;;;;;;2.40;0.80;;;;;;;;;;4971202;28;20210;-77
2023/04/24 11:21:32;;;;;;;8.57;0.80;;;;;;;;;;4989194;28;20175;-76
2023/04/24 11:23:58;;;;;;;2.95;0.50;;;;;;;;;;4973046;28;20179;-76
2023/04/24 11:26:32;;;;;;;2.88;0.60;;;;;;;;;;4990343;28;20210;-76
2023/04/24 11:29:06;;;;;;;4.10;0.85;;;;;;;;;;4990793;28;20175;-76
2023/04/24 11:31:38;;;;;;;4.93;1.20;;;;;;;;;;4973495;28;20183;-76
2023/04/24 11:34:07;;;;;;;6.53;1.23;;;;;;;;;;4985914;28;20176;-76
2023/04/24 11:36:33;;;;;;;2.37;0.77;;;;;;;;;;4989141;28;20206;-77
2023/04/24 11:38:58;;;;;;;2.57;0.60;;;;;;;;;;4992134;28;20577;-76
2023/04/24 11:41:25;;;;;;;2.90;1.00;;;;;;;;;;4988356;28;20180;-76
2023/04/24 11:43:51;;;;;;;5.13;1.53;;;;;;;;;;4979552;28;21583;-76
2023/04/24 11:46:17;;;;;;;5.43;1.07;;;;;;;;;;4985392;28;20577;-77
2023/04/24 11:48:44;;;;;;;3.00;0.70;;;;;;;;;;4966844;28;20645;-76
2023/04/24 11:51:11;;;;;;;4.13;0.97;;;;;;;;;;4983185;28;20190;-76
2023/04/24 11:53:37;;;;;;;2.87;0.60;;;;;;;;;;4983212;28;20274;-76
2023/04/24 11:56:03;;;;;;;4.73;0.90;;;;;;;;;;4985435;28;20421;-76
2023/04/24 11:58:28;;;;;;;1.07;0.70;;;;;;;;;;4987272;28;20191;-76
2023/04/24 12:00:57;;;;;;;6.77;1.57;;;;;;;;;;4990874;28;20180;-76
2023/04/24 12:03:23;;;;;;;3.37;1.47;;;;;;;;;;4972680;28;20187;-76
2023/04/24 12:05:48;;;;;;;5.67;0.97;;;;;;;;;;4986227;28;20561;-75
2023/04/24 12:08:26;;;;;;;1.13;0.53;;;;;;;;;;4973126;28;20233;-77
2023/04/24 12:10:52;;;;;;;5.43;1.03;;;;;;;;;;4987393;28;20186;-76
2023/04/24 12:13:17;;;;;;;1.43;0.87;;;;;;;;;;4994979;28;20282;-76
2023/04/24 12:15:42;;;;;;;5.43;1.03;;;;;;;;;;4990435;28;20638;-77
2023/04/24 12:18:11;;;;;;;5.53;1.30;;;;;;;;;;4978106;28;21193;-76
2023/04/24 12:20:36;;;;;;;4.63;1.20;;;;;;;;;;4993447;28;20641;-76
2023/04/24 12:23:01;;;;;;;4.80;1.33;;;;;;;;;;4970557;28;20187;-76
2023/04/24 12:25:27;;;;;;;4.33;1.33;;;;;;;;;;4989746;28;20180;-76
2023/04/24 12:28:05;;;;;;;6.73;1.03;;;;;;;;;;4992473;28;21020;-76
2023/04/24 12:30:35;;;;;;;7.87;2.07;;;;;;;;;;4994624;28;20175;-76
2023/04/24 12:33:00;;;;;;;3.73;1.30;;;;;;;;;;4991138;28;20188;-76
2023/04/24 12:35:29;;;;;;;6.40;1.53;;;;;;;;;;4994296;28;20198;-76
2023/04/24 12:37:55;;;;;;;5.23;1.10;;;;;;;;;;4975393;28;20195;-76
2023/04/24 12:40:20;;;;;;;3.30;1.50;;;;;;;;;;4990884;28;20528;-77
2023/04/24 12:42:49;;;;;;;7.53;1.30;;;;;;;;;;4989506;28;20179;-77
2023/04/24 12:45:15;;;;;;;5.03;1.50;;;;;;;;;;5002064;28;20191;-77
2023/04/24 12:47:41;;;;;;;4.33;1.70;;;;;;;;;;5016910;28;20206;-76
2023/04/24 12:50:07;;;;;;;3.97;1.67;;;;;;;;;;4987866;28;20242;-75
2023/04/24 12:52:32;;;;;;;15.83;1.90;;;;;;;;;;4992732;28;20650;-75
2023/04/24 12:54:58;;;;;;;6.80;1.77;;;;;;;;;;4992363;28;20188;-75
2023/04/24 12:57:24;;;;;;;7.77;1.13;;;;;;;;;;4987729;28;20204;-75
2023/04/24 12:59:50;;;;;;;8.70;2.13;;;;;;;;;;4985444;28;20226;-76
2023/04/24 13:02:17;;;;;;;3.10;1.53;;;;;;;;;;4971789;28;20651;-77
2023/04/24 13:04:43;;;;;;;7.23;1.83;;;;;;;;;;4970502;28;20176;-76
2023/04/24 13:07:09;;;;;;;7.75;2.55;;;;;;;;;;4988721;28;20204;-75
2023/04/24 13:09:34;;;;;;;8.05;1.83;;;;;;;;;;4968130;28;20653;-76
2023/04/24 13:12:00;;;;;;;9.52;2.45;;;;;;;;;;4973137;28;20179;-78
2023/04/24 13:14:26;;;;;;;6.38;1.42;;;;;;;;;;4991956;28;20661;-75
2023/04/24 13:16:51;;;;;;;6.18;2.05;;;;;;;;;;4974855;28;20211;-75
2023/04/24 13:19:16;;;;;;;6.03;2.28;;;;;;;;;;4973412;28;20215;-76
2023/04/24 13:21:42;;;;;;;9.95;1.95;;;;;;;;;;4967793;28;20662;-76
2023/04/24 13:24:07;;;;;;;7.97;1.27;;;;;;;;;;4986095;28;20550;-76
2023/04/24 13:26:33;;;;;;;4.53;1.48;;;;;;;;;;4988670;28;20199;-76
2023/04/24 13:28:58;;;;;;;4.75;1.80;;;;;;;;;;4989816;28;20226;-76
2023/04/24 13:31:23;;;;;;;5.88;2.05;;;;;;;;;;4974385;28;20620;-76
2023/04/24 13:33:48;;;;;;;5.15;1.83;;;;;;;;;;4992704;28;20182;-76
2023/04/24 13:36:13;;;;;;;6.32;2.17;;;;;;;;;;4988862;28;20728;-76
2023/04/24 13:38:39;;;;;;;2.75;1.35;;;;;;;;;;4994937;28;20184;-75
2023/04/24 13:41:04;;;;;;;5.35;1.83;;;;;;;;;;4971923;28;20182;-76
2023/04/24 13:43:29;;;;;;;4.65;1.95;;;;;;;;;;4991264;28;20181;-75
2023/04/24 13:45:54;;;;;;;9.43;2.90;;;;;;;;;;4992426;28;20182;-77
2023/04/24 13:48:20;;;;;;;5.80;1.90;;;;;;;;;;4991982;28;20176;-75
2023/04/24 13:50:48;;;;;;;10.85;2.25;;;;;;;;;;4989156;28;20715;-76
2023/04/24 13:53:13;;;;;;;6.07;2.55;;;;;;;;;;4989687;28;20187;-77
2023/04/24 13:55:39;;;;;;;2.75;2.03;;;;;;;;;;4974719;28;20187;-76
2023/04/24 13:58:04;;;;;;;6.78;3.13;;;;;;;;;;4987770;28;20203;-76
2023/04/24 14:00:30;;;;;;;3.28;1.90;;;;;;;;;;4986976;28;20203;-76
2023/04/24 14:02:56;;;;;;;6.75;2.38;;;;;;;;;;4998480;28;20236;-77
2023/04/24 14:05:21;;;;;;;7.07;1.90;;;;;;;;;;4990047;28;20616;-76
2023/04/24 14:07:47;;;;;;;8.75;1.83;;;;;;;;;;4992802;28;20191;-75
2023/04/24 14:10:12;;;;;;;4.95;1.80;;;;;;;;;;4987118;28;20184;-77
2023/04/24 14:12:37;;;;;;;9.25;4.07;;;;;;;;;;4990243;28;20233;-77
2023/04/24 14:15:04;;;;;;;6.90;2.28;;;;;;;;;;4990399;28;20275;-76
2023/04/24 14:17:30;;;;;;;9.10;2.55;;;;;;;;;;4992407;28;20697;-76
2023/04/24 14:19:56;;;;;;;6.93;1.92;;;;;;;;;;4990674;28;20199;-76
2023/04/24 14:22:21;;;;;;;3.70;1.75;;;;;;;;;;4971913;28;20547;-76
2023/04/24 14:24:47;;;;;;;7.53;1.75;;;;;;;;;;4989822;28;20197;-76
2023/04/24 14:27:12;;;;;;;5.68;1.88;;;;;;;;;;4992643;28;20191;-77
2023/04/24 14:29:37;;;;;;;6.45;2.38;;;;;;;;;;4989250;28;20183;-77
2023/04/24 14:32:02;;;;;;;4.53;2.08;;;;;;;;;;4991531;28;20183;-77
2023/04/24 14:34:27;;;;;;;7.53;1.90;;;;;;;;;;4987646;28;20231;-77